sensor_id;sensor_type;location;lat;lon;timestamp;pressure;altitude;pressure_sealevel;temperature;humidity
11676;BME280;5894;42.768;23.404;2023-04-07T00:01:32;95412.00;;;2.98;100.00
11676;BME280;5894;42.768;23.404;2023-04-07T00:03:59;95416.66;;;2.95;100.00
11676;BME280;5894;42.768;23.404;2023-04-07T00:06:26;95414.53;;;2.82;100.00
11676;BME280;5894;42.768;23.404;2023-04-07T00:08:53;95417.91;;;2.78;100.00
11676;BME280;5894;42.768;23.404;2023-04-07T00:11:21;95366.53;;;2.48;100.00
11676;BME280;5894;42.768;23.404;2023-04-07T00:13:48;95418.19;;;2.86;100.00
11676;BME280;5894;42.768;23.404;2023-04-07T00:16:15;95415.81;;;2.75;100.00
11676;BME280;5894;42.768;23.404;2023-04-07T00:18:42;95416.38;;;2.87;100.00
11676;BME280;5894;42.768;23.404;2023-04-07T00:21:08;95413.50;;;2.78;100.00
11676;BME280;5894;42.768;23.404;2023-04-07T00:23:35;95403.28;;;2.72;100.00
11676;BME280;5894;42.768;23.404;2023-04-07T00:26:02;95410.63;;;2.80;100.00
11676;BME280;5894;42.768;23.404;2023-04-07T00:28:30;95394.63;;;2.51;100.00
11676;BME280;5894;42.768;23.404;2023-04-07T00:30:57;95409.25;;;2.57;100.00
11676;BME280;5894;42.768;23.404;2023-04-07T00:33:24;95410.59;;;2.70;100.00
11676;BME280;5894;42.768;23.404;2023-04-07T00:35:51;95393.06;;;2.45;100.00
11676;BME280;5894;42.768;23.404;2023-04-07T00:38:19;95394.16;;;2.59;100.00
11676;BME280;5894;42.768;23.404;2023-04-07T00:40:46;95406.41;;;2.64;100.00
11676;BME280;5894;42.768;23.404;2023-04-07T00:43:12;95403.25;;;2.62;100.00
11676;BME280;5894;42.768;23.404;2023-04-07T00:45:41;95408.22;;;2.63;100.00
11676;BME280;5894;42.768;23.404;2023-04-07T00:48:09;95413.66;;;2.62;100.00
11676;BME280;5894;42.768;23.404;2023-04-07T00:50:36;95410.25;;;2.51;100.00
11676;BME280;5894;42.768;23.404;2023-04-07T00:53:03;95399.31;;;2.49;100.00
11676;BME280;5894;42.768;23.404;2023-04-07T00:55:30;95366.41;;;2.17;100.00
11676;BME280;5894;42.768;23.404;2023-04-07T00:57:57;95392.50;;;2.38;100.00
11676;BME280;5894;42.768;23.404;2023-04-07T01:00:24;95382.28;;;2.26;100.00
11676;BME280;5894;42.768;23.404;2023-04-07T01:02:57;95395.84;;;2.28;100.00
11676;BME280;5894;42.768;23.404;2023-04-07T01:05:31;95404.16;;;2.25;100.00
11676;BME280;5894;42.768;23.404;2023-04-07T01:08:08;95398.44;;;2.28;100.00
11676;BME280;5894;42.768;23.404;2023-04-07T01:10:51;95396.59;;;2.24;100.00
11676;BME280;5894;42.768;23.404;2023-04-07T01:13:22;95395.00;;;2.17;100.00
11676;BME280;5894;42.768;23.404;2023-04-07T01:16:04;95399.13;;;2.13;100.00
11676;BME280;5894;42.768;23.404;2023-04-07T01:18:38;95393.44;;;2.16;100.00
11676;BME280;5894;42.768;23.404;2023-04-07T01:21:08;95360.75;;;1.89;100.00
11676;BME280;5894;42.768;23.404;2023-04-07T01:23:51;95392.34;;;2.07;100.00
11676;BME280;5894;42.768;23.404;2023-04-07T01:26:23;95378.50;;;1.97;100.00
11676;BME280;5894;42.768;23.404;2023-04-07T01:29:06;95394.31;;;1.90;100.00
11676;BME280;5894;42.768;23.404;2023-04-07T01:31:38;95384.97;;;1.94;100.00
11676;BME280;5894;42.768;23.404;2023-04-07T01:34:08;95375.19;;;2.06;100.00
11676;BME280;5894;42.768;23.404;2023-04-07T01:36:36;95382.75;;;2.13;100.00
11676;BME280;5894;42.768;23.404;2023-04-07T01:39:04;95388.44;;;2.10;100.00
11676;BME280;5894;42.768;23.404;2023-04-07T01:41:32;95383.28;;;2.15;100.00
11676;BME280;5894;42.768;23.404;2023-04-07T01:44:00;95382.97;;;2.06;100.00
11676;BME280;5894;42.768;23.404;2023-04-07T01:46:27;95386.78;;;1.94;100.00
11676;BME280;5894;42.768;23.404;2023-04-07T01:48:56;95382.38;;;1.94;100.00
11676;BME280;5894;42.768;23.404;2023-04-07T01:51:25;95316.91;;;1.60;100.00
11676;BME280;5894;42.768;23.404;2023-04-07T01:53:54;95381.13;;;2.02;100.00
11676;BME280;5894;42.768;23.404;2023-04-07T01:56:22;95375.38;;;2.00;100.00
11676;BME280;5894;42.768;23.404;2023-04-07T01:58:51;95363.41;;;1.99;100.00
11676;BME280;5894;42.768;23.404;2023-04-07T02:01:20;95365.25;;;2.03;100.00
11676;BME280;5894;42.768;23.404;2023-04-07T02:03:51;95375.97;;;2.12;100.00
11676;BME280;5894;42.768;23.404;2023-04-07T02:06:26;95349.91;;;1.97;100.00
11676;BME280;5894;42.768;23.404;2023-04-07T02:08:56;95365.50;;;2.02;100.00
11676;BME280;5894;42.768;23.404;2023-04-07T02:11:26;95368.66;;;2.04;100.00
11676;BME280;5894;42.768;23.404;2023-04-07T02:14:00;95344.88;;;1.85;100.00
11676;BME280;5894;42.768;23.404;2023-04-07T02:16:31;95350.41;;;1.99;100.00
11676;BME280;5894;42.768;23.404;2023-04-07T02:19:00;95374.66;;;2.09;100.00
11676;BME280;5894;42.768;23.404;2023-04-07T02:21:29;95386.88;;;2.09;100.00
11676;BME280;5894;42.768;23.404;2023-04-07T02:23:59;95371.59;;;2.22;100.00
11676;BME280;5894;42.768;23.404;2023-04-07T02:26:27;95379.34;;;2.12;100.00
11676;BME280;5894;42.768;23.404;2023-04-07T02:28:55;95380.94;;;2.18;100.00
11676;BME280;5894;42.768;23.404;2023-04-07T02:31:22;95363.50;;;2.14;100.00
11676;BME280;5894;42.768;23.404;2023-04-07T02:33:49;95233.50;;;1.20;100.00
11676;BME280;5894;42.768;23.404;2023-04-07T02:36:16;95377.31;;;2.19;100.00
11676;BME280;5894;42.768;23.404;2023-04-07T02:38:44;95380.72;;;2.25;100.00
11676;BME280;5894;42.768;23.404;2023-04-07T02:41:11;95314.19;;;1.82;100.00
11676;BME280;5894;42.768;23.404;2023-04-07T02:43:38;95363.50;;;2.14;100.00
11676;BME280;5894;42.768;23.404;2023-04-07T02:46:05;95377.09;;;2.31;100.00
11676;BME280;5894;42.768;23.404;2023-04-07T02:48:32;95375.31;;;2.37;100.00
11676;BME280;5894;42.768;23.404;2023-04-07T02:50:58;95371.69;;;2.43;100.00
11676;BME280;5894;42.768;23.404;2023-04-07T02:53:25;95302.84;;;2.03;100.00
11676;BME280;5894;42.768;23.404;2023-04-07T02:55:53;95336.69;;;2.13;100.00
11676;BME280;5894;42.768;23.404;2023-04-07T02:58:20;95375.63;;;2.50;100.00
11676;BME280;5894;42.768;23.404;2023-04-07T03:00:47;95359.13;;;2.30;100.00
11676;BME280;5894;42.768;23.404;2023-04-07T03:03:18;95382.38;;;2.46;100.00
11676;BME280;5894;42.768;23.404;2023-04-07T03:06:03;95358.09;;;2.31;100.00
11676;BME280;5894;42.768;23.404;2023-04-07T03:08:31;95378.75;;;2.47;100.00
11676;BME280;5894;42.768;23.404;2023-04-07T03:11:00;95384.72;;;2.43;100.00
11676;BME280;5894;42.768;23.404;2023-04-07T03:13:28;95385.00;;;2.46;100.00
11676;BME280;5894;42.768;23.404;2023-04-07T03:15:55;95338.53;;;2.13;100.00
11676;BME280;5894;42.768;23.404;2023-04-07T03:18:24;95340.84;;;2.09;100.00
11676;BME280;5894;42.768;23.404;2023-04-07T03:20:58;95378.66;;;2.27;100.00
11676;BME280;5894;42.768;23.404;2023-04-07T03:23:25;95362.69;;;2.08;100.00
11676;BME280;5894;42.768;23.404;2023-04-07T03:25:56;95353.03;;;2.04;100.00
11676;BME280;5894;42.768;23.404;2023-04-07T03:28:29;95376.28;;;2.20;100.00
11676;BME280;5894;42.768;23.404;2023-04-07T03:30:56;95377.34;;;2.30;100.00
11676;BME280;5894;42.768;23.404;2023-04-07T03:33:23;95377.03;;;2.16;100.00
11676;BME280;5894;42.768;23.404;2023-04-07T03:35:51;95377.28;;;2.14;100.00
11676;BME280;5894;42.768;23.404;2023-04-07T03:38:20;95378.28;;;2.08;100.00
11676;BME280;5894;42.768;23.404;2023-04-07T03:40:50;95363.41;;;1.94;100.00
11676;BME280;5894;42.768;23.404;2023-04-07T03:43:19;95366.06;;;2.04;100.00
11676;BME280;5894;42.768;23.404;2023-04-07T03:45:48;95387.91;;;2.08;100.00
11676;BME280;5894;42.768;23.404;2023-04-07T03:48:16;95391.56;;;2.12;100.00
11676;BME280;5894;42.768;23.404;2023-04-07T03:50:56;95388.69;;;2.08;100.00
11676;BME280;5894;42.768;23.404;2023-04-07T03:53:23;95378.50;;;2.02;100.00
11676;BME280;5894;42.768;23.404;2023-04-07T03:55:51;95399.13;;;2.13;100.00
11676;BME280;5894;42.768;23.404;2023-04-07T03:58:37;95393.09;;;2.08;100.00
11676;BME280;5894;42.768;23.404;2023-04-07T04:01:12;95389.53;;;2.19;100.00
11676;BME280;5894;42.768;23.404;2023-04-07T04:03:41;95402.03;;;2.22;100.00
11676;BME280;5894;42.768;23.404;2023-04-07T04:06:22;95395.50;;;2.14;100.00
11676;BME280;5894;42.768;23.404;2023-04-07T04:08:51;95409.00;;;2.11;100.00
11676;BME280;5894;42.768;23.404;2023-04-07T04:11:19;95408.25;;;2.16;100.00
11676;BME280;5894;42.768;23.404;2023-04-07T04:13:54;95347.94;;;1.77;100.00
11676;BME280;5894;42.768;23.404;2023-04-07T04:16:22;95415.75;;;2.07;100.00
11676;BME280;5894;42.768;23.404;2023-04-07T04:18:51;95280.09;;;1.36;100.00
11676;BME280;5894;42.768;23.404;2023-04-07T04:21:19;95389.81;;;2.22;100.00
11676;BME280;5894;42.768;23.404;2023-04-07T04:23:47;95404.97;;;2.36;100.00
11676;BME280;5894;42.768;23.404;2023-04-07T04:26:14;95416.38;;;2.25;100.00
11676;BME280;5894;42.768;23.404;2023-04-07T04:28:42;95418.97;;;2.30;100.00
11676;BME280;5894;42.768;23.404;2023-04-07T04:31:09;95419.56;;;2.42;100.00
11676;BME280;5894;42.768;23.404;2023-04-07T04:33:42;95409.38;;;2.30;100.00
11676;BME280;5894;42.768;23.404;2023-04-07T04:36:10;95379.84;;;2.04;100.00
11676;BME280;5894;42.768;23.404;2023-04-07T04:38:37;95428.09;;;2.27;100.00
11676;BME280;5894;42.768;23.404;2023-04-07T04:41:16;95428.56;;;2.19;100.00
11676;BME280;5894;42.768;23.404;2023-04-07T04:43:43;95412.94;;;2.14;100.00
11676;BME280;5894;42.768;23.404;2023-04-07T04:46:15;95413.84;;;2.40;100.00
11676;BME280;5894;42.768;23.404;2023-04-07T04:48:45;95427.97;;;2.54;100.00
11676;BME280;5894;42.768;23.404;2023-04-07T04:51:12;95436.06;;;2.57;100.00
11676;BME280;5894;42.768;23.404;2023-04-07T04:53:40;95421.97;;;2.53;100.00
11676;BME280;5894;42.768;23.404;2023-04-07T04:56:07;95428.94;;;2.43;100.00
11676;BME280;5894;42.768;23.404;2023-04-07T04:58:44;95445.09;;;2.45;100.00
11676;BME280;5894;42.768;23.404;2023-04-07T05:01:16;95435.78;;;2.54;100.00
11676;BME280;5894;42.768;23.404;2023-04-07T05:03:57;95437.84;;;2.47;100.00
11676;BME280;5894;42.768;23.404;2023-04-07T05:06:27;95415.88;;;2.33;100.00
11676;BME280;5894;42.768;23.404;2023-04-07T05:08:57;95395.44;;;2.04;100.00
11676;BME280;5894;42.768;23.404;2023-04-07T05:11:29;95441.22;;;2.47;100.00
11676;BME280;5894;42.768;23.404;2023-04-07T05:13:56;95384.53;;;2.07;100.00
11676;BME280;5894;42.768;23.404;2023-04-07T05:16:24;95448.25;;;2.47;100.00
11676;BME280;5894;42.768;23.404;2023-04-07T05:18:51;95467.25;;;2.47;100.00
11676;BME280;5894;42.768;23.404;2023-04-07T05:21:20;95442.47;;;2.40;100.00
11676;BME280;5894;42.768;23.404;2023-04-07T05:23:48;95327.06;;;1.62;100.00
11676;BME280;5894;42.768;23.404;2023-04-07T05:26:18;95431.06;;;2.51;100.00
11676;BME280;5894;42.768;23.404;2023-04-07T05:28:46;95456.16;;;2.72;100.00
11676;BME280;5894;42.768;23.404;2023-04-07T05:31:18;95455.88;;;2.64;100.00
11676;BME280;5894;42.768;23.404;2023-04-07T05:33:47;95444.66;;;2.63;100.00
11676;BME280;5894;42.768;23.404;2023-04-07T05:36:14;95437.38;;;2.65;100.00
11676;BME280;5894;42.768;23.404;2023-04-07T05:38:43;95455.94;;;2.79;100.00
11676;BME280;5894;42.768;23.404;2023-04-07T05:41:13;95461.97;;;2.89;100.00
11676;BME280;5894;42.768;23.404;2023-04-07T05:43:40;95459.91;;;2.97;100.00
11676;BME280;5894;42.768;23.404;2023-04-07T05:46:07;95439.56;;;2.93;100.00
11676;BME280;5894;42.768;23.404;2023-04-07T05:48:42;95456.56;;;3.06;100.00
11676;BME280;5894;42.768;23.404;2023-04-07T05:51:09;95456.06;;;3.19;100.00
11676;BME280;5894;42.768;23.404;2023-04-07T05:53:36;95413.00;;;2.86;100.00
11676;BME280;5894;42.768;23.404;2023-04-07T05:56:04;95461.81;;;3.26;100.00
11676;BME280;5894;42.768;23.404;2023-04-07T05:58:43;95408.88;;;3.01;100.00
11676;BME280;5894;42.768;23.404;2023-04-07T06:01:12;95460.28;;;3.41;100.00
11676;BME280;5894;42.768;23.404;2023-04-07T06:03:39;95459.53;;;3.50;100.00
11676;BME280;5894;42.768;23.404;2023-04-07T06:06:10;95410.22;;;3.28;100.00
11676;BME280;5894;42.768;23.404;2023-04-07T06:08:37;95460.59;;;3.69;100.00
11676;BME280;5894;42.768;23.404;2023-04-07T06:11:06;95443.38;;;3.74;100.00
11676;BME280;5894;42.768;23.404;2023-04-07T06:13:33;95388.56;;;3.18;100.00
11676;BME280;5894;42.768;23.404;2023-04-07T06:16:00;95444.66;;;3.66;100.00
11676;BME280;5894;42.768;23.404;2023-04-07T06:18:26;95424.34;;;3.63;100.00
11676;BME280;5894;42.768;23.404;2023-04-07T06:20:53;95459.81;;;3.94;100.00
11676;BME280;5894;42.768;23.404;2023-04-07T06:23:20;95452.50;;;3.96;100.00
11676;BME280;5894;42.768;23.404;2023-04-07T06:25:47;95457.72;;;3.96;100.00
11676;BME280;5894;42.768;23.404;2023-04-07T06:28:17;95464.22;;;4.09;100.00
11676;BME280;5894;42.768;23.404;2023-04-07T06:30:45;95463.97;;;4.11;100.00
11676;BME280;5894;42.768;23.404;2023-04-07T06:33:13;95463.97;;;4.21;100.00
11676;BME280;5894;42.768;23.404;2023-04-07T06:35:40;95466.28;;;4.27;100.00
11676;BME280;5894;42.768;23.404;2023-04-07T06:38:07;95420.38;;;4.06;100.00
11676;BME280;5894;42.768;23.404;2023-04-07T06:40:35;95466.03;;;4.29;100.00
11676;BME280;5894;42.768;23.404;2023-04-07T06:43:02;95429.25;;;4.20;100.00
11676;BME280;5894;42.768;23.404;2023-04-07T06:45:48;95459.19;;;4.58;100.00
11676;BME280;5894;42.768;23.404;2023-04-07T06:48:14;95464.94;;;4.60;100.00
11676;BME280;5894;42.768;23.404;2023-04-07T06:50:45;95462.50;;;4.79;100.00
11676;BME280;5894;42.768;23.404;2023-04-07T06:53:11;95465.09;;;4.89;100.00
11676;BME280;5894;42.768;23.404;2023-04-07T06:55:38;95463.72;;;5.07;100.00
11676;BME280;5894;42.768;23.404;2023-04-07T06:58:05;95455.91;;;5.02;100.00
11676;BME280;5894;42.768;23.404;2023-04-07T07:00:32;95465.25;;;5.13;99.84
11676;BME280;5894;42.768;23.404;2023-04-07T07:03:01;95462.28;;;5.35;99.79
11676;BME280;5894;42.768;23.404;2023-04-07T07:05:28;95457.56;;;5.37;96.35
11676;BME280;5894;42.768;23.404;2023-04-07T07:07:55;95466.06;;;5.58;95.37
11676;BME280;5894;42.768;23.404;2023-04-07T07:10:22;95460.53;;;5.64;94.42
11676;BME280;5894;42.768;23.404;2023-04-07T07:12:49;95470.84;;;5.89;94.86
11676;BME280;5894;42.768;23.404;2023-04-07T07:15:16;95454.81;;;5.96;94.38
11676;BME280;5894;42.768;23.404;2023-04-07T07:17:43;95478.88;;;6.32;90.01
11676;BME280;5894;42.768;23.404;2023-04-07T07:20:11;95473.03;;;6.40;87.92
11676;BME280;5894;42.768;23.404;2023-04-07T07:22:38;95457.47;;;6.54;87.55
11676;BME280;5894;42.768;23.404;2023-04-07T07:25:06;95472.66;;;6.76;83.18
11676;BME280;5894;42.768;23.404;2023-04-07T07:27:33;95429.72;;;6.48;84.31
11676;BME280;5894;42.768;23.404;2023-04-07T07:30:00;95462.91;;;6.81;86.53
11676;BME280;5894;42.768;23.404;2023-04-07T07:32:27;95477.56;;;7.06;87.22
11676;BME280;5894;42.768;23.404;2023-04-07T07:34:54;95427.22;;;6.85;84.17
11676;BME280;5894;42.768;23.404;2023-04-07T07:37:22;95489.03;;;7.34;81.85
11676;BME280;5894;42.768;23.404;2023-04-07T07:39:48;95448.81;;;7.20;78.62
11676;BME280;5894;42.768;23.404;2023-04-07T07:42:15;95474.38;;;7.52;78.24
11676;BME280;5894;42.768;23.404;2023-04-07T07:44:42;95487.47;;;7.70;78.07
11676;BME280;5894;42.768;23.404;2023-04-07T07:47:09;95480.34;;;7.76;75.46
11676;BME280;5894;42.768;23.404;2023-04-07T07:49:36;95495.03;;;7.77;76.35
11676;BME280;5894;42.768;23.404;2023-04-07T07:52:04;95477.56;;;7.86;72.75
11676;BME280;5894;42.768;23.404;2023-04-07T07:54:32;95463.44;;;7.82;68.21
11676;BME280;5894;42.768;23.404;2023-04-07T07:56:59;95492.66;;;7.94;70.36
11676;BME280;5894;42.768;23.404;2023-04-07T07:59:27;95488.31;;;8.03;70.03
11676;BME280;5894;42.768;23.404;2023-04-07T08:01:54;95484.69;;;7.99;67.24
11676;BME280;5894;42.768;23.404;2023-04-07T08:04:21;95488.03;;;8.05;67.56
11676;BME280;5894;42.768;23.404;2023-04-07T08:06:48;95487.94;;;8.10;67.16
11676;BME280;5894;42.768;23.404;2023-04-07T08:09:16;95491.28;;;8.16;66.54
11676;BME280;5894;42.768;23.404;2023-04-07T08:11:44;95502.44;;;8.07;64.74
11676;BME280;5894;42.768;23.404;2023-04-07T08:14:12;95498.16;;;8.11;64.56
11676;BME280;5894;42.768;23.404;2023-04-07T08:16:39;95499.66;;;8.18;63.08
11676;BME280;5894;42.768;23.404;2023-04-07T08:19:06;95496.38;;;8.26;63.52
11676;BME280;5894;42.768;23.404;2023-04-07T08:21:33;95494.25;;;8.28;61.93
11676;BME280;5894;42.768;23.404;2023-04-07T08:24:00;95507.31;;;8.33;62.60
11676;BME280;5894;42.768;23.404;2023-04-07T08:26:27;95504.69;;;8.33;60.88
11676;BME280;5894;42.768;23.404;2023-04-07T08:28:55;95504.47;;;8.29;61.57
11676;BME280;5894;42.768;23.404;2023-04-07T08:31:23;95503.69;;;8.10;62.82
11676;BME280;5894;42.768;23.404;2023-04-07T08:33:49;95483.19;;;8.12;61.99
11676;BME280;5894;42.768;23.404;2023-04-07T08:36:18;95504.81;;;8.23;62.96
11676;BME280;5894;42.768;23.404;2023-04-07T08:38:45;95503.53;;;8.20;62.47
11676;BME280;5894;42.768;23.404;2023-04-07T08:41:17;95466.31;;;7.99;58.46
11676;BME280;5894;42.768;23.404;2023-04-07T08:43:46;95491.19;;;8.21;60.49
11676;BME280;5894;42.768;23.404;2023-04-07T08:46:18;95433.94;;;8.04;61.99
11676;BME280;5894;42.768;23.404;2023-04-07T08:48:50;95490.59;;;8.42;61.30
11676;BME280;5894;42.768;23.404;2023-04-07T08:51:25;95501.53;;;8.50;62.14
11676;BME280;5894;42.768;23.404;2023-04-07T09:10:55;95477.69;;;9.28;57.25
11676;BME280;5894;42.768;23.404;2023-04-07T09:13:23;95496.97;;;9.37;56.85
11676;BME280;5894;42.768;23.404;2023-04-07T09:15:50;95500.38;;;9.24;57.39
11676;BME280;5894;42.768;23.404;2023-04-07T09:18:18;95492.81;;;9.09;56.98
11676;BME280;5894;42.768;23.404;2023-04-07T09:20:54;95507.03;;;9.22;55.70
11676;BME280;5894;42.768;23.404;2023-04-07T09:23:28;95486.69;;;9.13;56.18
11676;BME280;5894;42.768;23.404;2023-04-07T09:25:57;95480.94;;;9.11;55.81
11676;BME280;5894;42.768;23.404;2023-04-07T09:28:37;95456.59;;;8.92;56.79
11676;BME280;5894;42.768;23.404;2023-04-07T09:31:06;95492.03;;;9.08;57.17
11676;BME280;5894;42.768;23.404;2023-04-07T09:33:34;95496.03;;;9.06;57.67
11676;BME280;5894;42.768;23.404;2023-04-07T09:36:01;95501.88;;;9.16;56.06
11676;BME280;5894;42.768;23.404;2023-04-07T09:38:33;95491.16;;;9.13;57.73
11676;BME280;5894;42.768;23.404;2023-04-07T09:41:08;95490.47;;;9.21;56.82
11676;BME280;5894;42.768;23.404;2023-04-07T09:43:37;95403.50;;;8.63;59.37
11676;BME280;5894;42.768;23.404;2023-04-07T09:46:11;95494.06;;;9.25;58.28
11676;BME280;5894;42.768;23.404;2023-04-07T09:48:38;95493.56;;;9.37;58.50
11676;BME280;5894;42.768;23.404;2023-04-07T09:51:07;95491.06;;;9.32;59.17
11676;BME280;5894;42.768;23.404;2023-04-07T09:53:45;95487.06;;;9.20;57.35
11676;BME280;5894;42.768;23.404;2023-04-07T09:56:15;95504.00;;;9.14;56.28
11676;BME280;5894;42.768;23.404;2023-04-07T09:58:44;95501.88;;;9.03;57.79
11676;BME280;5894;42.768;23.404;2023-04-07T10:01:12;95505.47;;;9.07;59.66
11676;BME280;5894;42.768;23.404;2023-04-07T10:03:41;95510.66;;;9.12;60.17
11676;BME280;5894;42.768;23.404;2023-04-07T10:06:09;95510.63;;;9.26;60.45
11676;BME280;5894;42.768;23.404;2023-04-07T10:08:38;95498.94;;;9.32;59.00
11676;BME280;5894;42.768;23.404;2023-04-07T10:11:06;95511.13;;;9.41;58.69
11676;BME280;5894;42.768;23.404;2023-04-07T10:13:36;95507.78;;;9.49;58.56
11676;BME280;5894;42.768;23.404;2023-04-07T10:16:06;95495.31;;;9.41;59.51
11676;BME280;5894;42.768;23.404;2023-04-07T10:18:34;95504.44;;;9.57;58.87
11676;BME280;5894;42.768;23.404;2023-04-07T10:21:02;95514.75;;;9.68;58.89
11676;BME280;5894;42.768;23.404;2023-04-07T10:23:47;95499.25;;;9.66;58.69
11676;BME280;5894;42.768;23.404;2023-04-07T10:26:17;95385.25;;;8.94;57.00
11676;BME280;5894;42.768;23.404;2023-04-07T10:28:49;95402.38;;;9.18;55.18
11676;BME280;5894;42.768;23.404;2023-04-07T10:31:17;95507.97;;;9.89;55.88
11676;BME280;5894;42.768;23.404;2023-04-07T10:33:46;95491.53;;;9.83;56.83
11676;BME280;5894;42.768;23.404;2023-04-07T10:36:14;95504.19;;;9.95;55.27
11676;BME280;5894;42.768;23.404;2023-04-07T10:38:41;95512.44;;;10.02;56.20
11676;BME280;5894;42.768;23.404;2023-04-07T10:41:33;95512.00;;;10.09;56.19
11676;BME280;5894;42.768;23.404;2023-04-07T10:44:02;95496.28;;;9.95;57.55
11676;BME280;5894;42.768;23.404;2023-04-07T10:49:35;95437.00;;;9.48;57.65
11676;BME280;5894;42.768;23.404;2023-04-07T10:52:21;95511.84;;;10.05;57.45
11676;BME280;5894;42.768;23.404;2023-04-07T10:55:29;95509.66;;;10.07;57.47
11676;BME280;5894;42.768;23.404;2023-04-07T10:58:29;95514.25;;;10.15;55.29
11676;BME280;5894;42.768;23.404;2023-04-07T11:01:19;95515.13;;;10.11;54.70
11676;BME280;5894;42.768;23.404;2023-04-07T11:03:58;95513.94;;;9.94;56.65
11676;BME280;5894;42.768;23.404;2023-04-07T11:06:25;95492.13;;;9.80;57.52
11676;BME280;5894;42.768;23.404;2023-04-07T11:08:53;95522.72;;;9.90;57.53
11676;BME280;5894;42.768;23.404;2023-04-07T11:11:35;95509.75;;;9.93;56.75
11676;BME280;5894;42.768;23.404;2023-04-07T11:14:03;95517.63;;;9.93;56.02
11676;BME280;5894;42.768;23.404;2023-04-07T11:16:39;95501.44;;;9.64;57.51
11676;BME280;5894;42.768;23.404;2023-04-07T11:19:07;95512.59;;;9.83;56.05
11676;BME280;5894;42.768;23.404;2023-04-07T11:21:34;95516.00;;;9.84;56.43
11676;BME280;5894;42.768;23.404;2023-04-07T11:24:01;95522.63;;;9.95;56.18
11676;BME280;5894;42.768;23.404;2023-04-07T11:26:28;95479.47;;;9.69;56.10
11676;BME280;5894;42.768;23.404;2023-04-07T11:28:55;95522.53;;;9.86;55.25
11676;BME280;5894;42.768;23.404;2023-04-07T11:31:24;95524.69;;;9.84;55.74
11676;BME280;5894;42.768;23.404;2023-04-07T11:33:53;95520.97;;;9.85;56.79
11676;BME280;5894;42.768;23.404;2023-04-07T11:36:28;95515.59;;;9.90;57.98
11676;BME280;5894;42.768;23.404;2023-04-07T11:38:57;95527.03;;;10.08;56.73
11676;BME280;5894;42.768;23.404;2023-04-07T11:41:25;95526.25;;;10.21;56.56
11676;BME280;5894;42.768;23.404;2023-04-07T11:44:05;95520.63;;;10.37;56.14
11676;BME280;5894;42.768;23.404;2023-04-07T11:46:32;95494.44;;;10.18;56.29
11676;BME280;5894;42.768;23.404;2023-04-07T11:49:10;95507.44;;;10.37;56.39
11676;BME280;5894;42.768;23.404;2023-04-07T11:51:37;95489.09;;;10.32;56.05
11676;BME280;5894;42.768;23.404;2023-04-07T11:54:04;95501.31;;;10.50;54.97
11676;BME280;5894;42.768;23.404;2023-04-07T11:56:41;95439.56;;;10.20;55.78
11676;BME280;5894;42.768;23.404;2023-04-07T11:59:18;95513.31;;;10.87;56.86
11676;BME280;5894;42.768;23.404;2023-04-07T12:01:45;95518.63;;;10.95;53.59
11676;BME280;5894;42.768;23.404;2023-04-07T12:04:14;95515.00;;;10.91;53.45
11676;BME280;5894;42.768;23.404;2023-04-07T12:06:41;95521.56;;;10.94;53.63
11676;BME280;5894;42.768;23.404;2023-04-07T12:09:25;95516.09;;;10.90;53.85
11676;BME280;5894;42.768;23.404;2023-04-07T12:11:52;95517.19;;;10.89;52.71
11676;BME280;5894;42.768;23.404;2023-04-07T12:14:19;95503.06;;;10.85;53.12
11676;BME280;5894;42.768;23.404;2023-04-07T12:16:45;95522.94;;;10.91;51.95
11676;BME280;5894;42.768;23.404;2023-04-07T12:19:14;95518.53;;;10.78;52.82
11676;BME280;5894;42.768;23.404;2023-04-07T12:21:41;95449.31;;;10.42;53.68
11676;BME280;5894;42.768;23.404;2023-04-07T12:24:08;95521.25;;;10.95;53.08
11676;BME280;5894;42.768;23.404;2023-04-07T12:26:35;95518.44;;;10.92;53.33
11676;BME280;5894;42.768;23.404;2023-04-07T12:29:01;95513.16;;;10.92;53.74
11676;BME280;5894;42.768;23.404;2023-04-07T12:31:29;95501.97;;;10.86;53.06
11676;BME280;5894;42.768;23.404;2023-04-07T12:33:56;95497.75;;;10.77;53.58
11676;BME280;5894;42.768;23.404;2023-04-07T12:36:25;95485.72;;;10.62;53.37
11676;BME280;5894;42.768;23.404;2023-04-07T12:38:52;95479.03;;;10.56;53.25
11676;BME280;5894;42.768;23.404;2023-04-07T12:41:19;95521.13;;;10.70;52.86
11676;BME280;5894;42.768;23.404;2023-04-07T12:43:46;95495.13;;;10.54;52.31
11676;BME280;5894;42.768;23.404;2023-04-07T12:46:13;95503.22;;;10.58;52.06
11676;BME280;5894;42.768;23.404;2023-04-07T12:48:39;95438.06;;;10.05;51.90
11676;BME280;5894;42.768;23.404;2023-04-07T12:51:06;95493.06;;;10.43;52.61
11676;BME280;5894;42.768;23.404;2023-04-07T12:53:35;95514.19;;;10.51;53.70
11676;BME280;5894;42.768;23.404;2023-04-07T12:56:01;95512.22;;;10.57;50.98
11676;BME280;5894;42.768;23.404;2023-04-07T12:58:28;95511.16;;;10.58;52.39
11676;BME280;5894;42.768;23.404;2023-04-07T13:00:55;95473.28;;;10.32;52.03
11676;BME280;5894;42.768;23.404;2023-04-07T13:03:22;95499.66;;;10.32;52.27
11676;BME280;5894;42.768;23.404;2023-04-07T13:05:49;95500.97;;;10.43;52.55
11676;BME280;5894;42.768;23.404;2023-04-07T13:08:18;95517.13;;;10.50;53.76
11676;BME280;5894;42.768;23.404;2023-04-07T13:10:47;95444.41;;;10.04;53.40
11676;BME280;5894;42.768;23.404;2023-04-07T13:13:14;95517.78;;;10.55;52.49
11676;BME280;5894;42.768;23.404;2023-04-07T13:15:41;95516.81;;;10.51;53.21
11676;BME280;5894;42.768;23.404;2023-04-07T13:18:07;95499.00;;;10.48;54.28
11676;BME280;5894;42.768;23.404;2023-04-07T13:20:34;95473.28;;;10.32;53.94
11676;BME280;5894;42.768;23.404;2023-04-07T13:23:02;95514.19;;;10.51;53.57
11676;BME280;5894;42.768;23.404;2023-04-07T13:25:29;95513.00;;;10.57;52.61
11676;BME280;5894;42.768;23.404;2023-04-07T13:27:57;95499.25;;;10.38;53.23
11676;BME280;5894;42.768;23.404;2023-04-07T13:30:24;95507.38;;;10.28;54.55
11676;BME280;5894;42.768;23.404;2023-04-07T13:32:51;95502.72;;;10.25;53.24
11676;BME280;5894;42.768;23.404;2023-04-07T13:35:18;95516.91;;;10.38;53.30